createdAt,value
2018-06-03T00:02:25.698Z,16.90
2018-06-03T00:04:54.820Z,16.80
2018-06-03T00:07:23.398Z,16.80
2018-06-03T00:09:52.026Z,16.70
2018-06-03T00:12:20.602Z,16.70
2018-06-03T00:14:49.168Z,16.70
2018-06-03T00:17:17.744Z,16.60
2018-06-03T00:19:46.319Z,16.60
2018-06-03T00:22:22.924Z,16.50
2018-06-03T00:24:51.487Z,16.50
2018-06-03T00:27:20.323Z,16.40
2018-06-03T00:29:49.137Z,16.40
2018-06-03T00:32:17.968Z,16.30
2018-06-03T00:34:48.010Z,16.30
2018-06-03T00:37:16.813Z,16.30
2018-06-03T00:39:45.632Z,16.30
2018-06-03T00:42:14.444Z,16.20
2018-06-03T00:44:43.264Z,16.20
2018-06-03T00:47:12.080Z,16.10
2018-06-03T00:54:38.099Z,16.00
2018-06-03T00:57:10.084Z,16.00
2018-06-03T00:59:39.220Z,15.90
2018-06-03T01:02:08.206Z,15.90
2018-06-03T01:04:37.037Z,15.90
2018-06-03T01:07:05.904Z,15.80
2018-06-03T01:09:34.720Z,15.80
2018-06-03T01:12:03.597Z,15.80
2018-06-03T01:14:32.499Z,15.80
2018-06-03T01:17:01.337Z,15.80
2018-06-03T01:19:30.280Z,15.70
2018-06-03T01:21:59.947Z,15.70
2018-06-03T01:24:28.759Z,15.70
2018-06-03T01:26:57.596Z,15.70
2018-06-03T01:29:26.444Z,15.70
2018-06-03T01:31:55.280Z,15.60
2018-06-03T01:34:24.117Z,15.60
2018-06-03T01:36:52.967Z,15.60
2018-06-03T01:39:21.797Z,15.50
2018-06-03T01:41:50.635Z,15.50
2018-06-03T01:44:19.468Z,15.50
2018-06-03T01:46:49.060Z,15.50
2018-06-03T01:49:17.880Z,15.50
2018-06-03T01:51:46.808Z,15.50
2018-06-03T01:54:15.654Z,15.50
2018-06-03T01:56:44.467Z,15.40
2018-06-03T01:59:13.300Z,15.40
2018-06-03T02:01:42.129Z,15.40
2018-06-03T02:04:10.973Z,15.40
2018-06-03T02:06:39.808Z,15.40
2018-06-03T02:09:08.629Z,15.40
2018-06-03T02:11:37.452Z,15.30
2018-06-03T02:14:06.295Z,15.30
2018-06-03T02:16:35.108Z,15.30
2018-06-03T02:19:03.961Z,15.20
2018-06-03T02:21:32.784Z,15.30
2018-06-03T02:24:01.621Z,15.30
2018-06-03T02:26:30.455Z,15.30
2018-06-03T02:31:27.904Z,15.40
2018-06-03T02:33:56.726Z,15.30
2018-06-03T02:36:25.548Z,15.30
2018-06-03T02:38:54.380Z,15.30
2018-06-03T02:41:23.239Z,15.30
2018-06-03T02:43:52.710Z,15.20
2018-06-03T02:46:21.532Z,15.20
2018-06-03T02:48:50.391Z,15.20
2018-06-03T02:51:19.912Z,15.20
2018-06-03T02:53:48.744Z,15.20
2018-06-03T02:56:17.581Z,15.10
2018-06-03T02:58:46.423Z,15.20
2018-06-03T03:03:43.760Z,15.30
2018-06-03T03:06:12.607Z,15.30
2018-06-03T03:08:41.443Z,15.30
2018-06-03T03:11:10.276Z,15.30
2018-06-03T03:13:39.114Z,15.40
2018-06-03T03:16:07.952Z,15.40
2018-06-03T03:18:36.797Z,15.50
2018-06-03T03:21:05.793Z,15.50
2018-06-03T03:23:34.641Z,15.60
2018-06-03T03:26:03.482Z,15.60
2018-06-03T03:28:32.409Z,15.70
2018-06-03T03:31:01.260Z,15.80
2018-06-03T03:33:30.093Z,15.90
2018-06-03T03:35:58.931Z,15.90
2018-06-03T03:38:27.748Z,16.00
2018-06-03T03:40:56.578Z,16.10
2018-06-03T03:43:25.398Z,16.30
2018-06-03T03:45:54.236Z,16.40
2018-06-03T03:48:23.097Z,16.50
2018-06-03T03:50:51.949Z,16.60
2018-06-03T03:53:20.768Z,16.70
2018-06-03T03:55:49.597Z,16.80
2018-06-03T03:58:18.424Z,16.90
2018-06-03T04:00:47.259Z,16.90
2018-06-03T04:03:16.081Z,16.90
2018-06-03T04:05:45.777Z,17.00
2018-06-03T04:08:14.604Z,17.00
2018-06-03T04:10:43.462Z,17.00
2018-06-03T04:13:12.311Z,17.10
2018-06-03T04:15:41.120Z,17.10
2018-06-03T04:18:09.956Z,17.20
2018-06-03T04:20:38.786Z,17.20
2018-06-03T04:23:07.608Z,17.30
2018-06-03T04:25:36.445Z,17.40
2018-06-03T04:30:33.882Z,17.50
2018-06-03T04:33:02.712Z,17.60
2018-06-03T04:35:31.540Z,17.70
2018-06-03T04:38:00.360Z,17.80
2018-06-03T04:40:29.198Z,17.80
2018-06-03T04:42:58.034Z,17.90
2018-06-03T04:45:26.887Z,18.00
2018-06-03T04:47:55.728Z,18.10
2018-06-03T04:50:24.565Z,18.20
2018-06-03T04:52:53.417Z,18.60
2018-06-03T04:55:22.238Z,19.10
2018-06-03T04:57:51.069Z,19.60
2018-06-03T05:00:19.894Z,20.10
2018-06-03T05:02:48.724Z,20.70
2018-06-03T05:05:17.624Z,21.30
2018-06-03T05:07:46.500Z,21.70
2018-06-03T05:10:15.367Z,21.90
2018-06-03T05:12:44.193Z,22.00
2018-06-03T05:15:13.025Z,22.30
2018-06-03T05:17:42.073Z,22.80
2018-06-03T05:20:10.885Z,23.60
2018-06-03T05:22:39.712Z,24.50
2018-06-03T05:25:08.553Z,25.30
2018-06-03T05:27:37.396Z,26.20
2018-06-03T05:30:06.248Z,26.60
2018-06-03T05:32:35.128Z,27.40
2018-06-03T05:35:03.968Z,27.30
2018-06-03T05:37:32.788Z,26.70
2018-06-03T05:40:01.619Z,25.90
2018-06-03T05:42:31.100Z,25.00
2018-06-03T05:45:00.022Z,24.20
2018-06-03T05:47:28.857Z,23.70
2018-06-03T05:49:57.668Z,23.50
2018-06-03T05:52:26.501Z,23.60
2018-06-03T05:54:55.325Z,23.90
2018-06-03T05:57:24.176Z,24.50
2018-06-03T05:59:53.020Z,24.60
2018-06-03T06:02:21.856Z,24.60
2018-06-03T06:04:50.672Z,24.90
2018-06-03T06:07:19.520Z,25.60
2018-06-03T06:09:48.339Z,26.40
2018-06-03T06:12:17.260Z,27.10
2018-06-03T06:14:46.089Z,27.00
2018-06-03T06:17:14.958Z,26.40
2018-06-03T06:19:43.776Z,25.50
2018-06-03T06:22:12.696Z,25.00
2018-06-03T06:24:42.556Z,24.40
2018-06-03T06:27:11.368Z,23.90
2018-06-03T06:29:40.203Z,23.60
2018-06-03T06:32:09.061Z,23.50
2018-06-03T06:34:37.896Z,23.70
2018-06-03T06:37:06.724Z,24.00
2018-06-03T06:39:35.569Z,24.10
2018-06-03T06:42:05.261Z,24.00
2018-06-03T06:44:34.096Z,24.00
2018-06-03T06:47:03.764Z,24.30
2018-06-03T06:49:32.593Z,25.20
2018-06-03T06:52:01.409Z,26.40
2018-06-03T06:54:30.240Z,27.80
2018-06-03T06:56:59.056Z,27.60
2018-06-03T06:59:27.883Z,28.20
2018-06-03T07:01:56.714Z,28.40
2018-06-03T07:04:25.576Z,29.10
2018-06-03T07:06:54.444Z,29.80
2018-06-03T07:09:23.286Z,29.80
2018-06-03T07:11:52.218Z,29.90
2018-06-03T07:14:21.377Z,29.70
2018-06-03T07:19:18.712Z,28.50
2018-06-03T07:21:47.534Z,28.40
2018-06-03T07:24:16.388Z,28.80
2018-06-03T07:26:45.296Z,28.70
2018-06-03T07:29:14.187Z,28.30
2018-06-03T07:31:43.333Z,27.90
2018-06-03T07:34:12.147Z,27.70
2018-06-03T07:36:40.972Z,28.10
2018-06-03T07:39:09.813Z,28.40
2018-06-03T07:41:38.656Z,28.30
2018-06-03T07:44:07.509Z,28.40
2018-06-03T07:46:36.340Z,28.50
2018-06-03T07:49:05.196Z,28.70
2018-06-03T07:51:34.026Z,29.10
2018-06-03T07:54:02.884Z,29.70
2018-06-03T07:56:31.778Z,30.20
2018-06-03T07:59:00.596Z,30.50
2018-06-03T08:01:29.440Z,30.20
2018-06-03T08:03:58.248Z,29.60
2018-06-03T08:06:27.121Z,29.20
2018-06-03T08:08:55.945Z,29.00
2018-06-03T08:11:24.773Z,29.10
2018-06-03T08:13:53.604Z,29.40
2018-06-03T08:16:22.448Z,29.80
2018-06-03T08:18:51.280Z,29.90
2018-06-03T08:21:20.157Z,29.20
2018-06-03T08:23:49.043Z,29.00
2018-06-03T08:26:18.445Z,29.00
2018-06-03T08:28:47.264Z,29.10
2018-06-03T08:31:16.092Z,28.80
2018-06-03T08:33:44.908Z,29.00
2018-06-03T08:36:13.725Z,29.50
2018-06-03T08:38:42.587Z,29.70
2018-06-03T08:41:11.429Z,29.80
2018-06-03T08:43:40.261Z,29.50
2018-06-03T08:46:09.080Z,29.40
2018-06-03T08:48:37.964Z,29.70
2018-06-03T08:51:06.814Z,29.60
2018-06-03T08:53:35.677Z,29.40
2018-06-03T08:56:04.536Z,29.10
2018-06-03T09:01:02.772Z,28.60
2018-06-03T09:03:31.604Z,28.30
2018-06-03T09:06:00.458Z,27.60
2018-06-03T09:08:29.272Z,27.40
2018-06-03T09:13:26.610Z,28.20
2018-06-03T09:15:55.435Z,28.20
2018-06-03T09:18:24.259Z,28.70
2018-06-03T09:20:53.145Z,28.50
2018-06-03T09:23:22.580Z,28.80
2018-06-03T09:25:51.438Z,29.10
2018-06-03T09:28:20.283Z,29.60
2018-06-03T09:30:57.047Z,30.20
2018-06-03T09:33:25.850Z,30.20
2018-06-03T09:38:23.285Z,29.70
2018-06-03T09:40:52.188Z,29.80
2018-06-03T09:43:21.016Z,30.20
2018-06-03T09:45:49.831Z,29.80
2018-06-03T09:48:18.660Z,29.80
2018-06-03T09:50:47.476Z,29.60
2018-06-03T09:53:16.354Z,29.00
2018-06-03T09:55:45.145Z,28.20
2018-06-03T09:58:13.968Z,27.60
2018-06-03T10:00:42.801Z,27.20
2018-06-03T10:03:11.629Z,26.80
2018-06-03T10:05:40.501Z,26.30
2018-06-03T10:08:09.332Z,26.00
2018-06-03T10:10:38.163Z,25.70
2018-06-03T10:13:06.997Z,25.50
2018-06-03T10:15:35.817Z,25.30
2018-06-03T10:18:04.681Z,25.10
2018-06-03T10:20:33.509Z,25.00
2018-06-03T10:23:02.343Z,24.90
2018-06-03T10:25:31.161Z,24.80
2018-06-03T10:28:00.017Z,24.70
2018-06-03T10:30:28.836Z,24.70
2018-06-03T10:32:57.675Z,24.60
2018-06-03T10:35:26.508Z,24.60
2018-06-03T10:37:55.353Z,24.60
2018-06-03T10:40:24.177Z,24.70
2018-06-03T10:42:53.012Z,24.70
2018-06-03T10:45:21.833Z,24.80
2018-06-03T10:47:50.677Z,24.90
2018-06-03T10:50:19.513Z,25.10
2018-06-03T10:52:48.365Z,25.30
2018-06-03T10:55:17.206Z,25.40
2018-06-03T10:57:46.125Z,25.40
2018-06-03T11:00:14.965Z,25.40
2018-06-03T11:02:43.788Z,25.40
2018-06-03T11:05:12.645Z,25.50
2018-06-03T11:10:10.073Z,26.20
2018-06-03T11:12:39.033Z,26.60
2018-06-03T11:15:07.862Z,26.70
2018-06-03T11:17:36.917Z,27.00
2018-06-03T11:20:06.321Z,27.00
2018-06-03T11:22:35.872Z,27.00
2018-06-03T11:25:05.190Z,27.00
2018-06-03T11:27:34.011Z,27.10
2018-06-03T11:30:02.840Z,27.10
2018-06-03T11:32:31.667Z,27.10
2018-06-03T11:35:00.513Z,27.00
2018-06-03T11:37:29.338Z,27.00
2018-06-03T11:39:58.203Z,26.50
2018-06-03T11:42:27.020Z,26.40
2018-06-03T11:44:56.185Z,26.60
2018-06-03T11:47:24.988Z,26.60
2018-06-03T11:49:53.820Z,26.20
2018-06-03T11:52:22.749Z,26.10
2018-06-03T11:54:51.568Z,25.80
2018-06-03T11:57:20.400Z,25.80
2018-06-03T11:59:49.228Z,25.90
2018-06-03T12:02:19.092Z,26.00
2018-06-03T12:04:47.917Z,26.10
2018-06-03T12:07:16.745Z,26.20
2018-06-03T12:09:45.572Z,26.30
2018-06-03T12:12:14.403Z,26.30
2018-06-03T12:14:43.247Z,26.60
2018-06-03T12:17:12.078Z,26.80
2018-06-03T12:19:42.936Z,26.90
2018-06-03T12:22:12.660Z,26.90
2018-06-03T12:24:41.837Z,27.00
2018-06-03T12:27:10.667Z,27.00
2018-06-03T12:29:40.217Z,27.00
2018-06-03T12:32:09.192Z,26.80
2018-06-03T12:34:38.382Z,26.60
2018-06-03T12:37:07.213Z,26.60
2018-06-03T12:39:36.129Z,26.40
2018-06-03T12:42:05.288Z,26.10
2018-06-03T12:44:34.173Z,25.90
2018-06-03T12:47:03.026Z,25.50
2018-06-03T12:49:31.851Z,25.50
2018-06-03T12:52:00.717Z,25.50
2018-06-03T12:54:30.368Z,25.60
2018-06-03T12:56:59.185Z,25.80
2018-06-03T12:59:28.014Z,26.00
2018-06-03T13:01:56.824Z,26.20
2018-06-03T13:04:25.649Z,26.30
2018-06-03T13:06:54.489Z,26.40
2018-06-03T13:09:23.308Z,26.40
2018-06-03T13:11:52.185Z,26.40
2018-06-03T13:14:21.022Z,26.30
2018-06-03T13:16:49.840Z,26.20
2018-06-03T13:19:18.696Z,26.20
2018-06-03T13:21:48.500Z,26.20
2018-06-03T13:24:17.308Z,26.20
2018-06-03T13:26:46.137Z,26.10
2018-06-03T13:29:14.956Z,26.00
2018-06-03T13:31:43.812Z,26.00
2018-06-03T13:34:12.637Z,25.80
2018-06-03T13:36:41.460Z,25.70
2018-06-03T13:39:10.281Z,25.70
2018-06-03T13:41:39.108Z,25.60
2018-06-03T13:44:07.944Z,25.60
2018-06-03T13:49:05.276Z,25.70
2018-06-03T13:51:34.097Z,25.80
2018-06-03T13:54:02.920Z,26.00
2018-06-03T13:56:32.544Z,26.20
2018-06-03T13:59:01.365Z,26.40
2018-06-03T14:01:30.172Z,26.40
2018-06-03T14:03:58.992Z,26.30
2018-06-03T14:06:28.820Z,26.40
2018-06-03T14:08:57.717Z,26.40
2018-06-03T14:11:26.601Z,26.40
2018-06-03T14:13:56.673Z,26.50
2018-06-03T14:16:25.469Z,26.60
2018-06-03T14:18:54.317Z,26.70
2018-06-03T14:21:23.133Z,26.70
2018-06-03T14:26:20.457Z,26.70
2018-06-03T14:28:49.271Z,26.70
2018-06-03T14:31:18.136Z,26.50
2018-06-03T14:33:46.976Z,26.40
2018-06-03T14:36:15.788Z,26.40
2018-06-03T14:38:44.612Z,26.40
2018-06-03T14:41:13.468Z,26.30
2018-06-03T14:43:42.318Z,26.30
2018-06-03T14:46:11.140Z,26.10
2018-06-03T14:48:40.052Z,26.00
2018-06-03T14:51:08.963Z,25.90
2018-06-03T14:53:37.785Z,25.70
2018-06-03T14:56:06.632Z,25.70
2018-06-03T14:58:35.968Z,25.70
2018-06-03T15:01:04.804Z,25.60
2018-06-03T15:03:33.655Z,25.50
2018-06-03T15:06:02.553Z,25.40
2018-06-03T15:08:31.386Z,25.40
2018-06-03T15:11:00.201Z,25.40
2018-06-03T15:13:29.021Z,25.40
2018-06-03T15:15:57.864Z,25.40
2018-06-03T15:18:26.801Z,25.30
2018-06-03T15:20:55.637Z,25.40
2018-06-03T15:23:24.861Z,25.40
2018-06-03T15:25:53.692Z,25.40
2018-06-03T15:28:23.022Z,25.40
2018-06-03T15:30:51.933Z,25.30
2018-06-03T15:35:49.752Z,25.20
2018-06-03T15:38:18.592Z,25.10
2018-06-03T15:40:47.432Z,24.90
2018-06-03T15:43:16.362Z,24.80
2018-06-03T15:45:45.192Z,24.70
2018-06-03T15:48:14.012Z,24.60
2018-06-03T15:50:42.944Z,24.50
2018-06-03T15:53:11.736Z,24.40
2018-06-03T15:55:40.568Z,24.20
2018-06-03T15:58:09.404Z,24.20
2018-06-03T16:00:38.228Z,24.20
2018-06-03T16:03:07.113Z,24.20
2018-06-03T16:05:35.904Z,24.20
2018-06-03T16:08:05.031Z,24.20
2018-06-03T16:10:33.808Z,24.20
2018-06-03T16:13:02.626Z,24.20
2018-06-03T16:15:31.545Z,24.30
2018-06-03T16:18:00.380Z,24.30
2018-06-03T16:20:29.226Z,24.40
2018-06-03T16:22:58.063Z,24.40
2018-06-03T16:25:27.151Z,24.40
2018-06-03T16:27:55.928Z,24.30
2018-06-03T16:30:24.808Z,24.30
2018-06-03T16:32:53.583Z,24.30
2018-06-03T16:35:22.441Z,24.40
2018-06-03T16:37:51.335Z,24.30
2018-06-03T16:40:20.149Z,24.30
2018-06-03T16:42:48.960Z,24.20
2018-06-03T16:45:17.789Z,24.20
2018-06-03T16:47:46.660Z,24.20
2018-06-03T16:50:15.575Z,24.20
2018-06-03T16:52:44.452Z,24.30
2018-06-03T16:55:13.348Z,24.20
2018-06-03T16:57:42.585Z,24.10
2018-06-03T17:00:11.393Z,24.10
2018-06-03T17:02:40.340Z,24.10
2018-06-03T17:05:09.158Z,24.00
2018-06-03T17:07:37.984Z,23.90
2018-06-03T17:10:06.901Z,23.90
2018-06-03T17:12:35.716Z,23.90
2018-06-03T17:15:04.539Z,23.90
2018-06-03T17:17:33.369Z,23.90
2018-06-03T17:20:02.184Z,23.90
2018-06-03T17:22:31.021Z,23.80
2018-06-03T17:24:59.833Z,23.80
2018-06-03T17:27:28.713Z,23.70
2018-06-03T17:29:57.532Z,23.70
2018-06-03T17:32:26.351Z,23.70
2018-06-03T17:34:55.461Z,23.70
2018-06-03T17:37:24.320Z,23.60
2018-06-03T17:39:54.016Z,23.60
2018-06-03T17:44:51.442Z,23.50
2018-06-03T17:47:20.268Z,23.40
2018-06-03T17:49:49.125Z,23.40
2018-06-03T17:52:17.958Z,23.30
2018-06-03T17:54:46.797Z,23.20
2018-06-03T17:57:15.640Z,23.10
2018-06-03T17:59:44.586Z,23.00
2018-06-03T18:02:13.409Z,23.00
2018-06-03T18:04:42.234Z,22.90
2018-06-03T18:07:11.072Z,22.90
2018-06-03T18:09:39.925Z,22.80
2018-06-03T18:12:08.744Z,22.80
2018-06-03T18:14:37.577Z,22.70
2018-06-03T18:17:06.526Z,22.70
2018-06-03T18:19:35.358Z,22.70
2018-06-03T18:22:04.148Z,22.60
2018-06-03T18:24:33.089Z,22.60
2018-06-03T18:27:01.918Z,22.50
2018-06-03T18:29:30.750Z,22.50
2018-06-03T18:31:59.648Z,22.40
2018-06-03T18:34:28.489Z,22.30
2018-06-03T18:36:57.309Z,22.20
2018-06-03T18:39:26.145Z,22.20
2018-06-03T18:41:54.968Z,22.10
2018-06-03T18:44:23.821Z,22.00
2018-06-03T18:46:52.654Z,21.90
2018-06-03T18:49:21.564Z,21.90
2018-06-03T18:51:50.385Z,21.80
2018-06-03T18:54:19.244Z,21.80
2018-06-03T18:56:48.053Z,21.70
2018-06-03T18:59:16.924Z,21.60
2018-06-03T19:01:45.744Z,21.60
2018-06-03T19:04:15.816Z,21.50
2018-06-03T19:06:44.664Z,21.40
2018-06-03T19:09:13.489Z,21.40
2018-06-03T19:11:42.324Z,21.30
2018-06-03T19:14:11.153Z,21.20
2018-06-03T19:16:39.961Z,21.10
2018-06-03T19:19:08.789Z,21.10
2018-06-03T19:21:37.964Z,21.00
2018-06-03T19:24:06.796Z,20.90
2018-06-03T19:26:35.616Z,20.80
2018-06-03T19:29:04.432Z,20.70
2018-06-03T19:31:33.247Z,20.60
2018-06-03T19:34:02.077Z,20.60
2018-06-03T19:36:30.888Z,20.50
2018-06-03T19:39:00.579Z,20.50
2018-06-03T19:41:29.392Z,20.40
2018-06-03T19:43:58.269Z,20.40
2018-06-03T19:46:27.113Z,20.30
2018-06-03T19:48:55.942Z,20.20
2018-06-03T19:51:24.764Z,20.20
2018-06-03T19:53:53.629Z,20.10
2018-06-03T19:56:22.431Z,20.10
2018-06-03T19:58:51.264Z,20.00
2018-06-03T20:01:20.089Z,20.00
2018-06-03T20:03:49.657Z,19.90
2018-06-03T20:06:18.450Z,19.90
2018-06-03T20:08:47.717Z,19.90
2018-06-03T20:11:16.544Z,19.80
2018-06-03T20:13:45.369Z,19.80
2018-06-03T20:16:15.098Z,19.80
2018-06-03T20:18:44.192Z,19.80
2018-06-03T20:21:13.309Z,19.70
2018-06-03T20:23:42.411Z,19.70
2018-06-03T20:26:11.231Z,19.70
2018-06-03T20:28:40.048Z,19.60
2018-06-03T20:31:08.876Z,19.60
2018-06-03T20:33:37.764Z,19.60
2018-06-03T20:36:06.616Z,19.50
2018-06-03T20:38:35.385Z,19.50
2018-06-03T20:41:05.161Z,19.40
2018-06-03T20:43:33.976Z,19.40
2018-06-03T20:46:02.816Z,19.40
2018-06-03T20:48:31.640Z,19.40
2018-06-03T20:51:00.489Z,19.30
2018-06-03T20:53:29.287Z,19.40
2018-06-03T20:55:58.140Z,19.30
2018-06-03T20:58:27.200Z,19.30
2018-06-03T21:00:56.024Z,19.20
2018-06-03T21:03:24.844Z,19.20
2018-06-03T21:05:53.685Z,19.20
2018-06-03T21:08:22.520Z,19.20
2018-06-03T21:10:51.394Z,19.20
2018-06-03T21:13:20.224Z,19.10
2018-06-03T21:15:49.072Z,19.10
2018-06-03T21:20:46.953Z,19.00
2018-06-03T21:23:15.788Z,19.00
2018-06-03T21:25:44.608Z,19.00
2018-06-03T21:28:13.451Z,19.00
2018-06-03T21:30:42.271Z,18.90
2018-06-03T21:33:11.126Z,18.90
2018-06-03T21:35:39.914Z,18.90
2018-06-03T21:38:08.741Z,18.90
2018-06-03T21:40:37.564Z,18.90
2018-06-03T21:43:06.423Z,18.80
2018-06-03T21:45:35.236Z,18.80
2018-06-03T21:50:32.589Z,18.90
2018-06-03T21:53:01.437Z,18.90
2018-06-03T21:55:30.269Z,18.90
2018-06-03T21:57:59.093Z,19.00
2018-06-03T22:00:28.036Z,19.00
2018-06-03T22:02:56.904Z,19.00
2018-06-03T22:05:25.749Z,19.00
2018-06-03T22:07:54.592Z,19.00
2018-06-03T22:10:23.440Z,19.10
2018-06-03T22:12:52.277Z,19.10
2018-06-03T22:15:21.092Z,19.10
2018-06-03T22:17:49.908Z,19.20
2018-06-03T22:20:18.824Z,19.20
2018-06-03T22:22:48.173Z,19.20
2018-06-03T22:25:17.005Z,19.20
2018-06-03T22:27:45.844Z,19.30
2018-06-03T22:30:14.664Z,19.30
2018-06-03T22:32:43.496Z,19.30
2018-06-03T22:35:12.337Z,19.30
2018-06-03T22:37:41.185Z,19.30
2018-06-03T22:40:10.990Z,19.30
2018-06-03T22:42:39.796Z,19.30
2018-06-03T22:45:08.617Z,19.30
2018-06-03T22:47:37.449Z,19.30
2018-06-03T22:50:06.309Z,19.30
2018-06-03T22:52:35.349Z,19.30
2018-06-03T22:55:04.153Z,19.30
2018-06-03T22:57:45.716Z,19.30
2018-06-03T23:00:19.668Z,19.30
2018-06-03T23:02:54.164Z,19.30
2018-06-03T23:05:23.839Z,19.30
2018-06-03T23:07:52.917Z,19.30
2018-06-03T23:10:21.780Z,19.30
2018-06-03T23:12:50.700Z,19.20
2018-06-03T23:15:20.205Z,19.10
2018-06-03T23:17:49.048Z,19.00
2018-06-03T23:20:17.880Z,19.00
2018-06-03T23:22:46.723Z,19.00
2018-06-03T23:25:15.551Z,18.90
2018-06-03T23:27:44.380Z,18.90
2018-06-03T23:30:13.204Z,18.80
2018-06-03T23:32:42.032Z,18.80
2018-06-03T23:35:10.861Z,18.80
2018-06-03T23:37:39.680Z,18.70
2018-06-03T23:40:08.516Z,18.70
2018-06-03T23:42:37.328Z,18.60
2018-06-03T23:45:06.156Z,18.60
2018-06-03T23:47:35.052Z,18.50
2018-06-03T23:50:03.901Z,18.40
2018-06-03T23:52:32.739Z,18.40
2018-06-03T23:55:01.569Z,18.30
2018-06-03T23:57:30.424Z,18.30
2018-06-03T23:59:59.268Z,18.30
